createdAt,value
2022-12-31T00:01:45.263Z,14.05
2022-12-31T00:04:13.044Z,14.11
2022-12-31T00:06:42.183Z,14.15
2022-12-31T00:09:11.313Z,14.24
2022-12-31T00:11:39.391Z,14.26
2022-12-31T00:14:07.318Z,14.41
2022-12-31T00:16:37.366Z,14.38
2022-12-31T00:19:06.496Z,14.44
2022-12-31T00:21:35.764Z,14.49
2022-12-31T00:24:05.421Z,14.56
2022-12-31T00:26:34.994Z,14.51
2022-12-31T00:29:03.441Z,14.66
2022-12-31T00:31:33.382Z,14.68
2022-12-31T00:34:01.808Z,14.72
2022-12-31T00:36:31.961Z,14.73
2022-12-31T00:39:01.723Z,14.75
2022-12-31T00:41:31.393Z,14.77
2022-12-31T00:43:59.426Z,14.79
2022-12-31T00:46:27.792Z,14.83
2022-12-31T00:48:55.580Z,14.87
2022-12-31T00:51:27.236Z,14.93
2022-12-31T00:53:55.691Z,14.95
2022-12-31T00:56:25.393Z,14.96
2022-12-31T00:58:55.220Z,14.90
2022-12-31T01:01:24.670Z,14.95
2022-12-31T01:03:53.826Z,14.95
2022-12-31T01:06:21.829Z,14.92
2022-12-31T01:08:50.861Z,14.93
2022-12-31T01:11:23.045Z,14.96
2022-12-31T01:13:53.448Z,14.85
2022-12-31T01:16:24.170Z,14.79
2022-12-31T01:18:52.877Z,14.75
2022-12-31T01:21:21.375Z,14.79
2022-12-31T01:23:49.184Z,14.80
2022-12-31T01:26:18.794Z,14.77
2022-12-31T01:28:47.076Z,14.77
2022-12-31T01:31:16.790Z,14.71
2022-12-31T01:33:46.786Z,14.68
2022-12-31T01:36:21.848Z,14.62
2022-12-31T01:38:53.149Z,14.66
2022-12-31T01:41:22.836Z,14.64
2022-12-31T01:43:54.195Z,14.65
2022-12-31T01:46:30.278Z,14.66
2022-12-31T01:49:02.725Z,14.71
2022-12-31T01:51:34.167Z,14.76
2022-12-31T01:54:03.971Z,14.77
2022-12-31T01:56:31.996Z,14.82
2022-12-31T01:59:00.497Z,14.87
2022-12-31T02:01:31.992Z,14.90
2022-12-31T02:04:05.985Z,14.92
2022-12-31T02:06:39.137Z,14.95
2022-12-31T02:09:08.035Z,14.95
2022-12-31T02:11:38.006Z,14.87
2022-12-31T02:14:09.418Z,14.93
2022-12-31T02:16:45.134Z,14.93
2022-12-31T02:19:47.160Z,14.93
2022-12-31T02:22:27.482Z,14.90
2022-12-31T02:25:22.088Z,14.95
2022-12-31T02:28:00.674Z,14.97
2022-12-31T02:30:33.108Z,14.95
2022-12-31T02:33:11.670Z,14.96
2022-12-31T02:35:47.567Z,14.96
2022-12-31T02:38:21.892Z,14.99
2022-12-31T02:40:50.212Z,15.03
2022-12-31T02:43:17.978Z,15.00
2022-12-31T02:45:51.350Z,14.95
2022-12-31T02:48:38.297Z,14.87
2022-12-31T02:51:18.512Z,14.77
2022-12-31T02:54:00.891Z,14.64
2022-12-31T02:56:33.594Z,14.62
2022-12-31T02:59:26.180Z,14.66
2022-12-31T03:02:16.976Z,14.52
2022-12-31T03:04:48.522Z,14.52
2022-12-31T03:07:20.478Z,14.58
2022-12-31T03:09:48.496Z,14.61
2022-12-31T03:12:49.452Z,14.66
2022-12-31T03:15:22.821Z,14.68
2022-12-31T03:17:54.989Z,14.69
2022-12-31T03:20:44.603Z,14.73
2022-12-31T03:23:14.911Z,14.68
2022-12-31T03:25:43.241Z,14.68
2022-12-31T03:28:14.336Z,14.76
2022-12-31T03:30:45.285Z,14.71
2022-12-31T03:33:15.003Z,14.71
2022-12-31T03:35:43.885Z,14.71
2022-12-31T03:38:12.102Z,14.72
2022-12-31T03:40:42.284Z,14.69
2022-12-31T03:43:10.229Z,14.66
2022-12-31T03:45:38.357Z,14.59
2022-12-31T03:48:08.038Z,14.61
2022-12-31T03:50:37.509Z,14.66
2022-12-31T03:53:05.408Z,14.71
2022-12-31T03:55:33.125Z,14.73
2022-12-31T03:58:01.038Z,14.75
2022-12-31T04:00:28.895Z,14.75
2022-12-31T04:02:56.748Z,14.83
2022-12-31T04:05:24.808Z,14.86
2022-12-31T04:07:55.627Z,14.87
2022-12-31T04:10:23.366Z,14.97
2022-12-31T04:12:51.141Z,14.99
2022-12-31T04:15:20.890Z,15.02
2022-12-31T04:17:49.166Z,15.06
2022-12-31T04:20:17.653Z,15.10
2022-12-31T04:22:45.428Z,15.13
2022-12-31T04:25:14.598Z,15.17
2022-12-31T04:27:44.060Z,15.13
2022-12-31T04:30:13.871Z,15.11
2022-12-31T04:32:42.147Z,15.11
2022-12-31T04:35:11.063Z,15.14
2022-12-31T04:37:38.882Z,15.20
2022-12-31T04:40:07.756Z,15.17
2022-12-31T04:42:37.460Z,15.19
2022-12-31T04:45:06.130Z,15.22
2022-12-31T04:47:33.970Z,15.26
2022-12-31T04:50:01.749Z,15.20
2022-12-31T04:52:29.533Z,15.20
2022-12-31T04:54:57.292Z,15.17
2022-12-31T04:57:25.084Z,15.14
2022-12-31T04:59:54.218Z,15.14
2022-12-31T05:02:22.153Z,15.07
2022-12-31T05:04:50.071Z,14.97
2022-12-31T05:07:18.726Z,14.80
2022-12-31T05:09:46.508Z,14.68
2022-12-31T05:12:14.247Z,14.75
2022-12-31T05:14:41.985Z,14.76
2022-12-31T05:17:11.051Z,14.76
2022-12-31T05:19:39.380Z,14.64
2022-12-31T05:22:24.899Z,14.58
2022-12-31T05:24:53.073Z,14.65
2022-12-31T05:27:21.018Z,14.69
2022-12-31T05:29:48.807Z,14.82
2022-12-31T05:32:18.117Z,14.80
2022-12-31T05:34:45.662Z,14.87
2022-12-31T05:37:13.596Z,14.89
2022-12-31T05:39:41.279Z,14.97
2022-12-31T05:42:09.070Z,15.00
2022-12-31T05:44:36.827Z,14.99
2022-12-31T05:47:04.651Z,15.02
2022-12-31T05:49:33.725Z,15.07
2022-12-31T05:52:01.564Z,15.16
2022-12-31T05:54:29.267Z,15.14
2022-12-31T05:56:57.063Z,15.26
2022-12-31T05:59:24.941Z,15.31
2022-12-31T06:01:52.690Z,15.30
2022-12-31T06:04:20.412Z,15.37
2022-12-31T06:06:49.570Z,15.40
2022-12-31T06:09:17.915Z,15.44
2022-12-31T06:11:46.577Z,15.53
2022-12-31T06:14:14.948Z,15.38
2022-12-31T06:16:43.477Z,15.13
2022-12-31T06:19:11.208Z,15.08
2022-12-31T06:21:38.980Z,15.03
2022-12-31T06:24:08.881Z,15.00
2022-12-31T06:26:36.701Z,15.00
2022-12-31T06:29:04.521Z,15.06
2022-12-31T06:31:32.319Z,15.16
2022-12-31T06:34:01.176Z,15.22
2022-12-31T06:36:29.305Z,15.22
2022-12-31T06:38:57.125Z,15.26
2022-12-31T06:41:26.241Z,15.28
2022-12-31T06:43:54.815Z,15.34
2022-12-31T06:46:22.633Z,15.40
2022-12-31T06:48:50.477Z,15.43
2022-12-31T06:51:19.890Z,15.53
2022-12-31T06:53:49.488Z,15.54
2022-12-31T06:56:19.230Z,15.61
2022-12-31T06:58:49.606Z,15.65
2022-12-31T07:01:44.654Z,15.64
2022-12-31T07:04:33.357Z,15.67
2022-12-31T07:07:07.245Z,15.69
2022-12-31T07:09:41.350Z,15.67
2022-12-31T07:12:19.369Z,15.68
2022-12-31T07:14:53.944Z,15.74
2022-12-31T07:17:33.081Z,15.74
2022-12-31T07:20:06.087Z,15.77
2022-12-31T07:22:34.472Z,15.81
2022-12-31T07:25:02.865Z,15.75
2022-12-31T07:28:01.464Z,15.78
2022-12-31T07:30:40.944Z,15.72
2022-12-31T07:33:30.413Z,15.75
2022-12-31T07:36:08.134Z,15.71
2022-12-31T07:38:41.357Z,15.77
2022-12-31T07:41:16.791Z,15.68
2022-12-31T07:44:02.081Z,15.61
2022-12-31T07:46:42.093Z,15.54
2022-12-31T07:49:12.169Z,15.47
2022-12-31T07:51:40.908Z,15.46
2022-12-31T07:54:13.582Z,15.44
2022-12-31T07:56:41.785Z,15.53
2022-12-31T07:59:24.083Z,15.58
2022-12-31T08:02:00.708Z,15.62
2022-12-31T08:04:33.422Z,15.74
2022-12-31T08:07:09.852Z,15.79
2022-12-31T08:09:47.000Z,15.77
2022-12-31T08:12:15.196Z,15.78
2022-12-31T08:14:46.606Z,15.77
2022-12-31T08:17:17.831Z,15.79
2022-12-31T08:19:46.657Z,15.89
2022-12-31T08:22:35.867Z,15.91
2022-12-31T08:25:14.179Z,15.98
2022-12-31T08:27:51.696Z,15.97
2022-12-31T08:30:22.052Z,16.08
2022-12-31T08:32:59.580Z,16.13
2022-12-31T08:35:39.964Z,16.25
2022-12-31T08:38:26.321Z,16.25
2022-12-31T08:41:02.370Z,16.16
2022-12-31T08:43:42.018Z,16.28
2022-12-31T08:46:18.690Z,16.38
2022-12-31T08:48:48.796Z,16.23
2022-12-31T08:51:20.440Z,16.28
2022-12-31T08:53:49.186Z,16.23
2022-12-31T08:56:27.414Z,16.26
2022-12-31T08:59:08.683Z,16.25
2022-12-31T09:01:46.790Z,16.39
2022-12-31T09:04:24.217Z,16.39
2022-12-31T09:06:59.631Z,16.43
2022-12-31T09:09:39.394Z,16.49
2022-12-31T09:12:11.723Z,16.47
2022-12-31T09:14:48.043Z,16.50
2022-12-31T09:17:41.496Z,16.64
2022-12-31T09:20:23.175Z,16.67
2022-12-31T09:22:51.904Z,16.70
2022-12-31T09:25:21.821Z,16.57
2022-12-31T09:28:02.726Z,16.57
2022-12-31T09:30:34.600Z,16.69
2022-12-31T09:33:08.639Z,16.79
2022-12-31T09:35:43.273Z,16.73
2022-12-31T09:38:20.021Z,16.64
2022-12-31T09:41:13.882Z,16.60
2022-12-31T09:44:14.078Z,16.61
2022-12-31T09:47:16.035Z,16.60
2022-12-31T09:50:21.969Z,16.59
2022-12-31T09:53:17.187Z,16.59
2022-12-31T09:55:49.483Z,16.61
2022-12-31T09:58:33.276Z,16.63
2022-12-31T10:01:07.601Z,16.66
2022-12-31T10:03:53.021Z,16.74
2022-12-31T10:06:27.413Z,16.81
2022-12-31T10:09:15.152Z,16.88
2022-12-31T10:12:03.808Z,16.91
2022-12-31T10:14:51.417Z,16.90
2022-12-31T10:17:30.292Z,17.00
2022-12-31T10:20:17.841Z,16.87
2022-12-31T10:23:18.164Z,16.80
2022-12-31T10:26:12.347Z,16.71
2022-12-31T10:28:50.103Z,16.70
2022-12-31T10:31:26.999Z,16.69
2022-12-31T10:34:08.065Z,16.71
2022-12-31T10:36:53.184Z,16.77
2022-12-31T10:39:28.267Z,16.73
2022-12-31T10:42:20.313Z,16.83
2022-12-31T10:45:12.752Z,16.95
2022-12-31T10:48:22.512Z,17.11
2022-12-31T10:51:15.267Z,17.04
2022-12-31T10:54:36.643Z,16.92
2022-12-31T10:57:33.364Z,17.10
2022-12-31T11:00:11.954Z,17.10
2022-12-31T11:03:12.776Z,16.90
2022-12-31T11:06:41.544Z,16.84
2022-12-31T11:09:50.853Z,16.76
2022-12-31T11:12:58.542Z,16.69
2022-12-31T11:15:50.053Z,16.63
2022-12-31T11:18:26.991Z,16.64
2022-12-31T11:21:10.014Z,16.59
2022-12-31T11:23:46.671Z,16.59
2022-12-31T11:26:25.711Z,16.56
2022-12-31T11:29:10.080Z,16.60
2022-12-31T11:31:48.256Z,16.64
2022-12-31T11:34:32.715Z,16.64
2022-12-31T11:37:21.441Z,16.74
2022-12-31T11:39:55.002Z,16.73
2022-12-31T11:42:30.153Z,16.71
2022-12-31T11:45:05.224Z,16.77
2022-12-31T11:48:27.916Z,16.85
2022-12-31T11:50:43.201Z,16.92
2022-12-31T11:53:46.329Z,16.94
2022-12-31T11:56:18.388Z,17.01
2022-12-31T11:58:49.267Z,17.12
2022-12-31T12:01:23.653Z,17.17
2022-12-31T12:03:51.486Z,17.48
2022-12-31T12:06:24.514Z,17.62
2022-12-31T12:09:00.210Z,17.86
2022-12-31T12:11:31.618Z,17.73
2022-12-31T12:13:59.507Z,17.48
2022-12-31T12:16:29.591Z,17.34
2022-12-31T12:19:05.434Z,17.14
2022-12-31T12:21:33.514Z,17.06
2022-12-31T12:24:02.936Z,17.03
2022-12-31T12:26:36.046Z,17.01
2022-12-31T12:29:11.136Z,16.98
2022-12-31T12:31:40.477Z,17.00
2022-12-31T12:34:23.407Z,16.95
2022-12-31T12:36:51.313Z,16.80
2022-12-31T12:39:22.438Z,16.81
2022-12-31T12:42:01.368Z,16.84
2022-12-31T12:44:29.233Z,16.84
2022-12-31T12:46:59.453Z,16.66
2022-12-31T12:49:29.533Z,16.20
2022-12-31T12:52:16.712Z,15.78
2022-12-31T12:55:00.426Z,15.46
2022-12-31T12:57:35.158Z,15.30
2022-12-31T13:00:16.091Z,15.08
2022-12-31T13:03:22.817Z,14.92
2022-12-31T13:06:05.699Z,14.80
2022-12-31T13:08:50.992Z,14.64
2022-12-31T13:11:31.768Z,14.55
2022-12-31T13:14:05.796Z,14.45
2022-12-31T13:16:40.276Z,14.35
2022-12-31T13:19:15.574Z,14.29
2022-12-31T13:21:51.506Z,14.26
2022-12-31T13:24:33.560Z,14.28
2022-12-31T13:27:07.558Z,14.32
2022-12-31T13:29:36.727Z,14.29
2022-12-31T13:32:08.234Z,14.25
2022-12-31T13:34:41.535Z,14.25
2022-12-31T13:37:23.222Z,14.28
2022-12-31T13:40:03.761Z,14.22
2022-12-31T13:42:40.199Z,14.28
2022-12-31T13:45:14.234Z,14.24
2022-12-31T13:47:47.232Z,14.25
2022-12-31T13:50:24.685Z,14.31
2022-12-31T13:52:58.069Z,14.35
2022-12-31T13:55:31.094Z,14.41
2022-12-31T13:58:05.963Z,14.38
2022-12-31T14:00:38.846Z,14.39
2022-12-31T14:03:13.987Z,14.42
2022-12-31T14:05:51.819Z,14.45
2022-12-31T14:08:19.692Z,14.48
2022-12-31T14:10:58.757Z,14.49
2022-12-31T14:13:42.711Z,14.56
2022-12-31T14:16:20.405Z,14.66
2022-12-31T14:18:56.178Z,14.68
2022-12-31T14:21:30.279Z,14.72
2022-12-31T14:24:05.161Z,14.73
2022-12-31T14:26:37.471Z,14.85
2022-12-31T14:29:20.996Z,14.97
2022-12-31T14:32:14.139Z,15.16
2022-12-31T14:34:49.675Z,15.19
2022-12-31T14:37:28.183Z,15.31
2022-12-31T14:40:02.423Z,15.41
2022-12-31T14:42:37.371Z,15.43
2022-12-31T14:45:20.610Z,15.51
2022-12-31T14:47:53.554Z,15.57
2022-12-31T14:50:24.713Z,15.61
2022-12-31T14:52:56.105Z,15.65
2022-12-31T14:55:28.239Z,15.61
2022-12-31T15:00:54.704Z,15.68
2022-12-31T15:03:34.742Z,15.58
2022-12-31T15:06:23.496Z,15.47
2022-12-31T15:09:07.499Z,15.47
2022-12-31T15:11:49.318Z,15.46
2022-12-31T15:14:55.532Z,15.46
2022-12-31T15:17:33.516Z,15.48
2022-12-31T15:20:19.459Z,15.57
2022-12-31T15:22:49.200Z,15.55
2022-12-31T15:25:27.261Z,15.51
2022-12-31T15:27:56.213Z,15.48
2022-12-31T15:30:34.757Z,15.46
2022-12-31T15:33:06.239Z,15.37
2022-12-31T15:35:46.572Z,15.27
2022-12-31T15:38:33.014Z,15.24
2022-12-31T15:41:13.374Z,15.20
2022-12-31T15:43:44.711Z,15.22
2022-12-31T15:46:19.473Z,15.16
2022-12-31T15:48:52.694Z,15.13
2022-12-31T15:51:25.170Z,15.06
2022-12-31T15:53:54.871Z,15.03
2022-12-31T15:56:34.193Z,15.04
2022-12-31T15:59:05.085Z,15.06
2022-12-31T16:01:35.849Z,15.11
2022-12-31T16:04:06.619Z,15.13
2022-12-31T16:06:37.723Z,15.06
2022-12-31T16:09:09.593Z,15.02
2022-12-31T16:11:41.605Z,15.04
2022-12-31T16:14:18.301Z,15.04
2022-12-31T16:16:54.974Z,15.07
2022-12-31T16:19:31.383Z,15.02
2022-12-31T16:22:04.079Z,15.06
2022-12-31T16:24:37.487Z,15.07
2022-12-31T16:27:16.779Z,15.02
2022-12-31T16:29:52.255Z,15.02
2022-12-31T16:32:23.431Z,14.97
2022-12-31T16:34:51.265Z,14.90
2022-12-31T16:37:20.790Z,14.86
2022-12-31T16:40:17.179Z,14.89
2022-12-31T16:42:47.563Z,14.80
2022-12-31T16:45:29.033Z,14.85
2022-12-31T16:47:58.269Z,14.82
2022-12-31T16:50:26.078Z,14.82
2022-12-31T16:53:00.771Z,14.83
2022-12-31T16:55:30.848Z,14.82
2022-12-31T16:58:02.696Z,14.77
2022-12-31T17:00:30.578Z,14.72
2022-12-31T17:03:07.345Z,14.76
2022-12-31T17:05:37.591Z,14.75
2022-12-31T17:08:23.710Z,14.79
2022-12-31T17:10:51.734Z,14.76
2022-12-31T17:13:29.568Z,14.95
2022-12-31T17:15:59.374Z,14.96
2022-12-31T17:18:28.084Z,14.96
2022-12-31T17:20:56.476Z,14.93
2022-12-31T17:23:27.800Z,14.83
2022-12-31T17:26:00.075Z,14.86
2022-12-31T17:28:38.208Z,14.85
2022-12-31T17:31:28.687Z,14.87
2022-12-31T17:34:24.929Z,14.90
2022-12-31T17:36:58.135Z,14.90
2022-12-31T17:39:27.085Z,14.99
2022-12-31T17:41:58.436Z,15.03
2022-12-31T17:44:29.492Z,15.08
2022-12-31T17:46:57.405Z,15.03
2022-12-31T17:49:30.746Z,15.07
2022-12-31T17:51:58.726Z,15.03
2022-12-31T17:54:26.590Z,15.24
2022-12-31T17:56:54.897Z,15.26
2022-12-31T17:59:24.672Z,15.19
2022-12-31T18:01:54.016Z,15.16
2022-12-31T18:04:21.926Z,15.19
2022-12-31T18:06:49.700Z,15.34
2022-12-31T18:09:18.101Z,15.41
2022-12-31T18:11:46.572Z,15.43
2022-12-31T18:14:15.713Z,15.44
2022-12-31T18:16:43.772Z,15.46
2022-12-31T18:19:37.865Z,15.59
2022-12-31T18:22:03.084Z,15.58
2022-12-31T18:24:30.871Z,15.59
2022-12-31T18:26:58.629Z,15.65
2022-12-31T18:29:26.458Z,15.64
2022-12-31T18:31:54.433Z,15.59
2022-12-31T18:34:23.632Z,15.62
2022-12-31T18:36:51.404Z,15.59
2022-12-31T18:39:19.158Z,15.59
2022-12-31T18:41:49.764Z,15.54
2022-12-31T18:44:17.912Z,15.44
2022-12-31T18:46:45.758Z,15.46
2022-12-31T18:49:13.532Z,15.53
2022-12-31T18:51:42.635Z,15.46
2022-12-31T18:54:12.425Z,15.41
2022-12-31T18:56:44.953Z,15.44
2022-12-31T18:59:15.537Z,15.44
2022-12-31T19:01:43.477Z,15.40
2022-12-31T19:04:13.932Z,15.48
2022-12-31T19:06:43.506Z,15.44
2022-12-31T19:09:30.897Z,15.54
2022-12-31T19:12:00.297Z,15.51
2022-12-31T19:14:28.784Z,15.58
2022-12-31T19:19:26.512Z,15.62
2022-12-31T19:21:55.625Z,15.47
2022-12-31T19:24:26.440Z,15.43
2022-12-31T19:26:55.386Z,15.41
2022-12-31T19:29:26.024Z,15.40
2022-12-31T19:31:54.089Z,15.41
2022-12-31T19:34:22.179Z,15.44
2022-12-31T19:36:49.953Z,15.37
2022-12-31T19:39:21.546Z,15.47
2022-12-31T19:41:56.564Z,15.55
2022-12-31T19:44:27.120Z,15.65
2022-12-31T19:46:54.963Z,15.62
2022-12-31T19:49:22.711Z,15.62
2022-12-31T19:51:50.476Z,15.64
2022-12-31T19:54:19.643Z,15.71
2022-12-31T19:56:47.447Z,15.71
2022-12-31T19:59:15.205Z,15.77
2022-12-31T20:01:43.144Z,15.75
2022-12-31T20:04:10.971Z,15.81
2022-12-31T20:06:38.780Z,15.78
2022-12-31T20:09:06.715Z,15.71
2022-12-31T20:11:36.042Z,15.74
2022-12-31T20:14:03.854Z,15.71
2022-12-31T20:16:33.699Z,15.62
2022-12-31T20:19:01.502Z,15.64
2022-12-31T20:21:30.323Z,15.65
2022-12-31T20:23:58.080Z,15.67
2022-12-31T20:26:27.232Z,15.68
2022-12-31T20:28:56.366Z,15.74
2022-12-31T20:31:26.112Z,15.71
2022-12-31T20:33:54.800Z,15.64
2022-12-31T20:36:23.646Z,15.55
2022-12-31T20:38:51.490Z,15.57
2022-12-31T20:41:21.313Z,15.55
2022-12-31T20:43:49.660Z,15.50
2022-12-31T20:46:20.992Z,15.48
2022-12-31T20:48:49.954Z,15.46
2022-12-31T20:51:19.456Z,15.53
2022-12-31T20:53:48.487Z,15.61
2022-12-31T20:56:16.648Z,15.57
2022-12-31T20:58:44.683Z,15.54
2022-12-31T21:01:13.399Z,15.55
2022-12-31T21:06:32.801Z,15.55
2022-12-31T21:09:01.999Z,15.53
2022-12-31T21:11:46.873Z,15.48
2022-12-31T21:14:14.877Z,15.53
2022-12-31T21:16:42.788Z,15.53
2022-12-31T21:19:11.899Z,15.61
2022-12-31T21:21:39.673Z,15.58
2022-12-31T21:24:08.088Z,15.58
2022-12-31T21:26:36.298Z,15.58
2022-12-31T21:29:04.133Z,15.65
2022-12-31T21:31:31.999Z,15.67
2022-12-31T21:33:59.881Z,15.72
2022-12-31T21:36:29.016Z,15.74
2022-12-31T21:38:56.791Z,15.82
2022-12-31T21:41:42.139Z,15.84
2022-12-31T21:44:09.889Z,15.91
2022-12-31T21:46:37.717Z,15.88
2022-12-31T21:49:05.556Z,15.87
2022-12-31T21:51:54.740Z,15.81
2022-12-31T21:54:36.285Z,15.82
2022-12-31T21:57:04.734Z,15.95
2022-12-31T22:00:09.104Z,15.89
2022-12-31T22:02:58.974Z,15.88
2022-12-31T22:05:27.588Z,15.94
2022-12-31T22:07:56.717Z,15.97
2022-12-31T22:10:24.517Z,16.02
2022-12-31T22:12:52.292Z,15.98
2022-12-31T22:15:20.143Z,15.94
2022-12-31T22:17:48.098Z,15.87
2022-12-31T22:20:31.130Z,15.82
2022-12-31T22:23:00.279Z,15.74
2022-12-31T22:25:28.124Z,15.84
2022-12-31T22:28:36.221Z,15.95
2022-12-31T22:30:43.753Z,15.95
2022-12-31T22:33:11.536Z,15.92
2022-12-31T22:35:39.318Z,15.81
2022-12-31T22:38:12.076Z,15.85
2022-12-31T22:40:40.323Z,15.87
2022-12-31T22:43:08.149Z,15.89
2022-12-31T22:45:37.407Z,15.99
2022-12-31T22:48:05.225Z,16.06
2022-12-31T22:50:32.961Z,16.13
2022-12-31T22:53:00.784Z,16.12
2022-12-31T22:55:29.934Z,16.10
2022-12-31T22:57:57.772Z,16.12
2022-12-31T23:00:39.581Z,16.09
2022-12-31T23:03:07.933Z,16.09
2022-12-31T23:05:35.794Z,16.16
2022-12-31T23:08:12.873Z,16.16
2022-12-31T23:11:05.647Z,16.10
2022-12-31T23:13:55.928Z,16.04
2022-12-31T23:16:42.905Z,16.01
2022-12-31T23:19:29.249Z,15.99
2022-12-31T23:22:14.851Z,15.99
2022-12-31T23:24:42.808Z,15.97
2022-12-31T23:27:13.050Z,15.95
2022-12-31T23:29:46.782Z,15.88
2022-12-31T23:32:15.830Z,15.85
2022-12-31T23:34:44.143Z,15.89
2022-12-31T23:37:12.178Z,15.89
2022-12-31T23:39:40.361Z,15.91
2022-12-31T23:42:08.127Z,15.95
2022-12-31T23:44:37.373Z,15.97
2022-12-31T23:47:05.100Z,15.91
2022-12-31T23:49:32.930Z,15.89
2022-12-31T23:52:00.699Z,15.85
2022-12-31T23:54:29.483Z,15.78
2022-12-31T23:56:57.292Z,15.79
2022-12-31T23:59:24.996Z,15.82
